Time;durP1;ratioP1;P1;durP2;ratioP2;P2;SDS_P1;SDS_P2;PMS_P1;PMS_P2;Temp;Humidity;BMP_temperature;BMP_pressure;BME280_temperature;BME280_humidity;BME280_pressure;Samples;Min_cycle;Max_cycle;Signal;HPM_P1;HPM_P2
2024/01/28 00:02:25;;;;;;;6.17;5.60;;;;;;;;;;6152210;23;20428;-70
2024/01/28 00:04:51;;;;;;;7.80;5.20;;;;;;;;;;6153101;23;20375;-70
2024/01/28 00:07:17;;;;;;;10.13;6.57;;;;;;;;;;6126528;23;20424;-70
2024/01/28 00:09:43;;;;;;;10.67;6.50;;;;;;;;;;6153334;23;20589;-70
2024/01/28 00:12:10;;;;;;;6.50;5.90;;;;;;;;;;6126651;23;20381;-70
2024/01/28 00:14:36;;;;;;;5.67;5.20;;;;;;;;;;6153500;23;20388;-70
2024/01/28 00:17:02;;;;;;;6.00;5.30;;;;;;;;;;6152485;23;20468;-70
2024/01/28 00:19:28;;;;;;;13.23;6.50;;;;;;;;;;6152596;23;20369;-70
2024/01/28 00:21:54;;;;;;;5.77;5.10;;;;;;;;;;6152431;23;20435;-70
2024/01/28 00:24:21;;;;;;;8.17;5.67;;;;;;;;;;6153150;23;20452;-70
2024/01/28 00:26:47;;;;;;;10.30;4.83;;;;;;;;;;6127034;23;20489;-70
2024/01/28 00:29:13;;;;;;;9.70;6.87;;;;;;;;;;6152772;23;20879;-70
2024/01/28 00:31:39;;;;;;;6.83;5.90;;;;;;;;;;6151951;23;20397;-70
2024/01/28 00:34:05;;;;;;;5.50;5.03;;;;;;;;;;6152823;23;20743;-70
2024/01/28 00:36:31;;;;;;;10.50;5.37;;;;;;;;;;6152921;23;20758;-70
2024/01/28 00:38:57;;;;;;;7.10;5.97;;;;;;;;;;6152946;23;20381;-70
2024/01/28 00:41:26;;;;;;;5.90;5.40;;;;;;;;;;6152851;23;20515;-70
2024/01/28 00:43:54;;;;;;;9.70;5.10;;;;;;;;;;6153044;23;20389;-70
2024/01/28 00:46:20;;;;;;;7.70;5.40;;;;;;;;;;6152383;23;20385;-70
2024/01/28 00:48:46;;;;;;;7.93;5.50;;;;;;;;;;6152702;23;20385;-70
2024/01/28 00:51:13;;;;;;;5.83;5.33;;;;;;;;;;6152754;23;20460;-70
2024/01/28 00:53:39;;;;;;;6.30;5.73;;;;;;;;;;6152744;23;20456;-70
2024/01/28 00:56:05;;;;;;;5.10;4.60;;;;;;;;;;6151232;23;20482;-70
2024/01/28 00:58:31;;;;;;;5.90;5.27;;;;;;;;;;6151509;23;20432;-70
2024/01/28 01:00:57;;;;;;;6.70;5.73;;;;;;;;;;6152342;23;20373;-70
2024/01/28 01:03:23;;;;;;;4.80;4.40;;;;;;;;;;6151315;23;20655;-70
2024/01/28 01:05:49;;;;;;;8.00;4.80;;;;;;;;;;6151886;23;20373;-70
2024/01/28 01:08:16;;;;;;;5.53;3.87;;;;;;;;;;6152808;23;20906;-70
2024/01/28 01:10:42;;;;;;;3.43;3.33;;;;;;;;;;6153379;23;20380;-70
2024/01/28 01:13:08;;;;;;;3.00;2.90;;;;;;;;;;6152398;23;20427;-70
2024/01/28 01:15:34;;;;;;;3.23;2.47;;;;;;;;;;6151417;23;20748;-70
2024/01/28 01:18:00;;;;;;;2.37;2.37;;;;;;;;;;6151940;23;20381;-71
2024/01/28 01:20:26;;;;;;;2.50;2.40;;;;;;;;;;6152823;23;20377;-70
2024/01/28 01:22:54;;;;;;;2.87;2.67;;;;;;;;;;6152437;23;20518;-70
2024/01/28 01:25:20;;;;;;;3.73;3.40;;;;;;;;;;6152034;23;20380;-70
2024/01/28 01:27:48;;;;;;;3.93;3.53;;;;;;;;;;6152236;23;20377;-70
2024/01/28 01:30:14;;;;;;;3.80;3.50;;;;;;;;;;6151695;23;20377;-70
2024/01/28 01:32:41;;;;;;;3.00;2.83;;;;;;;;;;6152034;23;20389;-70
2024/01/28 01:35:14;;;;;;;3.20;3.00;;;;;;;;;;6152333;23;20400;-70
2024/01/28 01:37:40;;;;;;;3.27;3.07;;;;;;;;;;6152972;23;20476;-70
2024/01/28 01:40:06;;;;;;;3.47;3.03;;;;;;;;;;6125944;23;20388;-70
2024/01/28 01:42:32;;;;;;;4.07;3.27;;;;;;;;;;6152062;23;20978;-70
2024/01/28 01:44:58;;;;;;;2.80;2.70;;;;;;;;;;6152854;23;20373;-70
2024/01/28 01:47:25;;;;;;;3.10;3.00;;;;;;;;;;6151436;23;20485;-70
2024/01/28 01:49:51;;;;;;;5.70;4.40;;;;;;;;;;6152454;23;20386;-70
2024/01/28 01:52:18;;;;;;;5.60;4.60;;;;;;;;;;6153252;23;20393;-70
2024/01/28 01:54:44;;;;;;;4.70;4.40;;;;;;;;;;6154662;23;20411;-70
2024/01/28 01:57:10;;;;;;;3.33;3.10;;;;;;;;;;6128108;23;20385;-70
2024/01/28 01:59:38;;;;;;;4.50;4.20;;;;;;;;;;6153598;23;20433;-70
2024/01/28 02:02:05;;;;;;;3.53;3.33;;;;;;;;;;6153306;23;20420;-70
2024/01/28 02:04:31;;;;;;;3.83;3.43;;;;;;;;;;6154496;23;20405;-69
2024/01/28 02:06:57;;;;;;;2.63;2.53;;;;;;;;;;6128077;23;20399;-69
2024/01/28 02:09:23;;;;;;;3.37;3.07;;;;;;;;;;6154385;23;20429;-70
2024/01/28 02:11:49;;;;;;;4.03;3.63;;;;;;;;;;6154038;23;20678;-70
2024/01/28 02:14:22;;;;;;;6.47;4.07;;;;;;;;;;6153616;23;20472;-69
2024/01/28 02:16:48;;;;;;;4.13;3.60;;;;;;;;;;6153601;23;20408;-69
2024/01/28 02:19:14;;;;;;;4.33;3.50;;;;;;;;;;6153951;23;20452;-70
2024/01/28 02:21:40;;;;;;;3.40;3.10;;;;;;;;;;6153783;23;20440;-70
2024/01/28 02:24:06;;;;;;;2.83;2.73;;;;;;;;;;6154490;23;20369;-70
2024/01/28 02:26:32;;;;;;;2.90;2.70;;;;;;;;;;6153717;23;20385;-70
2024/01/28 02:28:58;;;;;;;3.00;2.90;;;;;;;;;;6153700;23;20721;-70
2024/01/28 02:31:24;;;;;;;3.63;3.30;;;;;;;;;;6153649;23;20385;-70
2024/01/28 02:33:50;;;;;;;3.17;3.07;;;;;;;;;;6153541;23;20373;-70
2024/01/28 02:36:16;;;;;;;3.50;3.20;;;;;;;;;;6153878;23;20468;-70
2024/01/28 02:38:42;;;;;;;4.13;3.43;;;;;;;;;;6153582;23;20377;-69
2024/01/28 02:41:08;;;;;;;3.37;3.10;;;;;;;;;;6153493;23;20444;-70
2024/01/28 02:43:34;;;;;;;3.13;2.93;;;;;;;;;;6154195;23;20471;-70
2024/01/28 02:46:00;;;;;;;3.63;3.43;;;;;;;;;;6153800;23;20385;-70
2024/01/28 02:48:26;;;;;;;5.03;3.70;;;;;;;;;;6152712;23;20837;-69
2024/01/28 02:50:52;;;;;;;2.50;2.30;;;;;;;;;;6152996;23;20383;-69
2024/01/28 02:53:18;;;;;;;2.77;2.67;;;;;;;;;;6153671;23;20385;-70
2024/01/28 02:55:44;;;;;;;2.53;2.43;;;;;;;;;;6153888;23;20491;-70
2024/01/28 02:58:10;;;;;;;3.47;3.27;;;;;;;;;;6152371;23;20931;-69
2024/01/28 03:00:36;;;;;;;3.30;3.00;;;;;;;;;;6153352;23;20376;-70
2024/01/28 03:03:03;;;;;;;2.70;2.40;;;;;;;;;;6153087;23;20460;-70
2024/01/28 03:05:30;;;;;;;1.83;1.83;;;;;;;;;;6152995;23;20464;-70
2024/01/28 03:07:56;;;;;;;8.37;2.67;;;;;;;;;;6153789;23;20401;-69
2024/01/28 03:10:22;;;;;;;3.07;2.97;;;;;;;;;;6153948;23;20373;-69
2024/01/28 03:12:51;;;;;;;2.80;2.60;;;;;;;;;;6127580;23;20455;-70
2024/01/28 03:15:18;;;;;;;3.43;3.23;;;;;;;;;;6153326;23;20468;-70
2024/01/28 03:17:44;;;;;;;4.50;4.10;;;;;;;;;;6152639;23;20381;-70
2024/01/28 03:20:10;;;;;;;2.57;2.43;;;;;;;;;;6127225;23;20413;-69
2024/01/28 03:22:36;;;;;;;2.90;2.70;;;;;;;;;;6153162;23;20761;-70
2024/01/28 03:25:02;;;;;;;2.60;2.50;;;;;;;;;;6153527;23;20456;-69
2024/01/28 03:27:28;;;;;;;2.50;2.40;;;;;;;;;;6151244;23;20389;-69
2024/01/28 03:29:54;;;;;;;3.47;2.90;;;;;;;;;;6154022;23;20531;-70
2024/01/28 03:32:20;;;;;;;3.43;3.13;;;;;;;;;;6152877;23;20381;-70
2024/01/28 03:34:46;;;;;;;4.33;4.03;;;;;;;;;;6153685;23;20373;-70
2024/01/28 03:37:12;;;;;;;4.67;3.20;;;;;;;;;;6153027;23;20886;-70
2024/01/28 03:39:38;;;;;;;6.80;4.13;;;;;;;;;;6153178;23;20930;-70
2024/01/28 03:42:04;;;;;;;4.30;3.90;;;;;;;;;;6153224;23;20511;-70
2024/01/28 03:44:30;;;;;;;4.60;4.23;;;;;;;;;;6153687;23;20380;-70
2024/01/28 03:46:56;;;;;;;8.43;5.50;;;;;;;;;;6151930;23;20385;-70
2024/01/28 03:49:22;;;;;;;5.40;5.00;;;;;;;;;;6153351;23;20860;-70
2024/01/28 03:51:48;;;;;;;8.37;5.97;;;;;;;;;;6153415;23;20381;-70
2024/01/28 03:54:17;;;;;;;6.83;5.50;;;;;;;;;;6153591;23;20377;-70
2024/01/28 03:56:43;;;;;;;5.90;4.63;;;;;;;;;;6152638;23;20385;-70
2024/01/28 03:59:09;;;;;;;6.50;5.43;;;;;;;;;;6152674;23;20495;-70
2024/01/28 04:01:35;;;;;;;6.73;6.07;;;;;;;;;;6125823;23;20443;-69
2024/01/28 04:04:02;;;;;;;6.60;6.00;;;;;;;;;;6153465;23;20389;-70
2024/01/28 04:06:27;;;;;;;10.50;6.70;;;;;;;;;;6153566;23;20381;-70
2024/01/28 04:08:55;;;;;;;6.93;5.53;;;;;;;;;;6152958;23;20840;-69
2024/01/28 04:11:25;;;;;;;6.80;6.00;;;;;;;;;;6153179;23;20754;-70
2024/01/28 04:13:51;;;;;;;5.93;5.33;;;;;;;;;;6152876;23;20384;-69
2024/01/28 04:16:17;;;;;;;8.00;5.00;;;;;;;;;;6151583;23;20906;-69
2024/01/28 04:18:43;;;;;;;5.33;4.83;;;;;;;;;;6153283;23;20412;-70
2024/01/28 04:21:09;;;;;;;5.57;4.10;;;;;;;;;;6152680;23;20844;-69
2024/01/28 04:23:35;;;;;;;5.30;4.90;;;;;;;;;;6152734;23;20385;-70
2024/01/28 04:26:01;;;;;;;5.30;4.80;;;;;;;;;;6152651;23;20372;-69
2024/01/28 04:28:27;;;;;;;7.90;5.70;;;;;;;;;;6153067;23;20385;-70
2024/01/28 04:30:53;;;;;;;11.53;7.17;;;;;;;;;;6152761;23;20373;-69
2024/01/28 04:33:18;;;;;;;8.27;5.83;;;;;;;;;;6152165;23;20887;-69
2024/01/28 04:35:44;;;;;;;5.13;4.73;;;;;;;;;;6152713;23;20475;-69
2024/01/28 04:38:11;;;;;;;4.67;4.37;;;;;;;;;;6152488;23;20377;-70
2024/01/28 04:40:37;;;;;;;3.60;3.30;;;;;;;;;;6126645;23;20435;-70
2024/01/28 04:43:03;;;;;;;5.30;3.57;;;;;;;;;;6126545;23;20440;-70
2024/01/28 04:45:29;;;;;;;3.47;3.27;;;;;;;;;;6152182;23;20376;-69
2024/01/28 04:47:55;;;;;;;10.43;2.67;;;;;;;;;;6152500;23;20416;-70
2024/01/28 04:50:21;;;;;;;2.80;2.70;;;;;;;;;;6152742;23;20428;-69
2024/01/28 04:52:46;;;;;;;3.17;2.97;;;;;;;;;;6153276;23;20409;-69
2024/01/28 04:55:12;;;;;;;2.30;2.20;;;;;;;;;;6152857;23;20432;-69
2024/01/28 04:57:38;;;;;;;2.93;2.70;;;;;;;;;;6151500;23;20732;-69
2024/01/28 05:00:06;;;;;;;2.97;2.60;;;;;;;;;;6152158;23;20377;-69
2024/01/28 05:02:32;;;;;;;3.10;2.90;;;;;;;;;;6151658;23;20490;-70
2024/01/28 05:04:58;;;;;;;3.23;2.10;;;;;;;;;;6151594;23;20455;-70
2024/01/28 05:07:24;;;;;;;2.60;2.50;;;;;;;;;;6151668;23;20377;-69
2024/01/28 05:09:51;;;;;;;2.67;2.47;;;;;;;;;;6126564;23;20416;-70
2024/01/28 05:12:17;;;;;;;3.10;2.23;;;;;;;;;;6152474;23;20373;-70
2024/01/28 05:14:43;;;;;;;2.53;2.43;;;;;;;;;;6152408;23;20389;-69
2024/01/28 05:17:09;;;;;;;3.07;2.10;;;;;;;;;;6125896;23;20452;-70
2024/01/28 05:19:36;;;;;;;2.47;1.83;;;;;;;;;;6152813;23;20385;-70
2024/01/28 05:22:02;;;;;;;2.60;2.50;;;;;;;;;;6125868;23;20705;-69
2024/01/28 05:24:28;;;;;;;1.90;1.80;;;;;;;;;;6152900;23;20200;-69
2024/01/28 05:26:54;;;;;;;3.43;2.40;;;;;;;;;;6154032;23;20851;-69
2024/01/28 05:29:20;;;;;;;7.20;3.27;;;;;;;;;;6154038;23;20387;-69
2024/01/28 05:31:46;;;;;;;3.70;2.20;;;;;;;;;;6154034;23;20384;-70
2024/01/28 05:34:12;;;;;;;2.43;2.23;;;;;;;;;;6155121;23;20479;-70
2024/01/28 05:36:38;;;;;;;1.87;1.77;;;;;;;;;;6153473;23;20404;-69
2024/01/28 05:39:04;;;;;;;2.33;2.23;;;;;;;;;;6154707;23;20381;-70
2024/01/28 05:41:30;;;;;;;2.57;2.47;;;;;;;;;;6128080;23;20432;-70
2024/01/28 05:43:56;;;;;;;5.27;4.87;;;;;;;;;;6154469;23;20380;-69
2024/01/28 05:46:22;;;;;;;7.07;5.80;;;;;;;;;;6153802;23;20706;-70
2024/01/28 05:48:48;;;;;;;6.63;5.83;;;;;;;;;;6154721;23;20851;-70
2024/01/28 05:51:14;;;;;;;4.67;4.30;;;;;;;;;;6153977;23;20376;-69
2024/01/28 05:53:40;;;;;;;5.60;4.73;;;;;;;;;;6154079;23;20381;-69
2024/01/28 05:56:06;;;;;;;4.27;3.33;;;;;;;;;;6154194;23;20377;-70
2024/01/28 05:58:32;;;;;;;4.53;3.30;;;;;;;;;;6154066;23;20516;-69
2024/01/28 06:01:02;;;;;;;2.53;2.43;;;;;;;;;;6153821;23;20380;-69
2024/01/28 06:03:28;;;;;;;2.30;2.20;;;;;;;;;;6153911;23;20518;-70
2024/01/28 06:05:54;;;;;;;1.97;1.87;;;;;;;;;;6154170;23;20401;-69
2024/01/28 06:08:20;;;;;;;2.47;2.27;;;;;;;;;;6127836;23;20399;-69
2024/01/28 06:10:46;;;;;;;1.60;1.60;;;;;;;;;;6128447;23;20492;-70
2024/01/28 06:13:12;;;;;;;1.80;1.70;;;;;;;;;;6153896;23;20393;-70
2024/01/28 06:15:38;;;;;;;1.60;1.50;;;;;;;;;;6153828;23;20472;-70
2024/01/28 06:18:04;;;;;;;1.50;1.50;;;;;;;;;;6153877;23;20381;-70
2024/01/28 06:20:35;;;;;;;1.80;1.80;;;;;;;;;;6154447;23;20369;-70
2024/01/28 06:23:01;;;;;;;1.30;1.30;;;;;;;;;;6153322;23;20420;-70
2024/01/28 06:25:27;;;;;;;1.70;1.60;;;;;;;;;;6153441;23;20447;-70
2024/01/28 06:27:53;;;;;;;1.93;1.90;;;;;;;;;;6153642;23;20428;-69
2024/01/28 06:30:19;;;;;;;2.30;1.33;;;;;;;;;;6154666;23;20381;-70
2024/01/28 06:32:45;;;;;;;1.80;1.80;;;;;;;;;;6153591;23;20431;-70
2024/01/28 06:35:11;;;;;;;4.50;1.63;;;;;;;;;;6153638;23;20395;-70
2024/01/28 06:37:37;;;;;;;2.07;1.57;;;;;;;;;;6153632;23;20384;-70
2024/01/28 06:40:03;;;;;;;1.77;1.77;;;;;;;;;;6153890;23;20910;-70
2024/01/28 06:42:32;;;;;;;2.10;2.10;;;;;;;;;;6153103;23;20424;-69
2024/01/28 06:44:58;;;;;;;4.40;2.10;;;;;;;;;;6153707;23;20379;-70
2024/01/28 06:47:24;;;;;;;1.40;1.40;;;;;;;;;;6152877;23;20768;-70
2024/01/28 06:49:50;;;;;;;2.27;2.17;;;;;;;;;;6153604;23;20412;-70
2024/01/28 06:52:16;;;;;;;1.37;1.37;;;;;;;;;;6153341;23;20704;-70
2024/01/28 06:54:42;;;;;;;2.30;2.00;;;;;;;;;;6153982;23;20380;-70
2024/01/28 06:57:08;;;;;;;1.70;1.70;;;;;;;;;;6153075;23;20373;-70
2024/01/28 06:59:34;;;;;;;3.33;3.13;;;;;;;;;;6153155;23;20556;-70
2024/01/28 07:02:00;;;;;;;7.83;3.80;;;;;;;;;;6152586;23;20451;-69
2024/01/28 07:04:26;;;;;;;4.50;4.10;;;;;;;;;;6153740;23;20385;-69
2024/01/28 07:06:52;;;;;;;5.50;5.00;;;;;;;;;;6127190;23;20392;-69
2024/01/28 07:09:18;;;;;;;5.10;4.60;;;;;;;;;;6153774;23;20387;-70
2024/01/28 07:11:44;;;;;;;8.70;3.33;;;;;;;;;;6152788;23;20949;-70
2024/01/28 07:14:10;;;;;;;2.40;2.30;;;;;;;;;;6153459;23;20455;-70
2024/01/28 07:16:36;;;;;;;2.40;2.30;;;;;;;;;;6151650;23;20381;-72
2024/01/28 07:19:03;;;;;;;3.53;2.80;;;;;;;;;;6153745;23;20387;-70
2024/01/28 07:21:30;;;;;;;4.97;4.47;;;;;;;;;;6149794;23;20396;-70
2024/01/28 07:23:56;;;;;;;4.27;4.07;;;;;;;;;;6153283;23;20460;-70
2024/01/28 07:26:22;;;;;;;4.10;3.80;;;;;;;;;;6151922;23;20411;-70
2024/01/28 07:28:48;;;;;;;4.33;4.03;;;;;;;;;;6153267;23;20945;-70
2024/01/28 07:31:15;;;;;;;2.87;2.70;;;;;;;;;;6152241;23;20377;-70
2024/01/28 07:33:41;;;;;;;3.57;2.33;;;;;;;;;;6152745;23;20536;-70
2024/01/28 07:36:07;;;;;;;2.73;2.63;;;;;;;;;;6151995;23;20433;-70
2024/01/28 07:38:33;;;;;;;1.90;1.90;;;;;;;;;;6153863;23;20396;-69
2024/01/28 07:40:59;;;;;;;2.13;2.03;;;;;;;;;;6152280;23;20870;-70
2024/01/28 07:43:25;;;;;;;2.20;2.10;;;;;;;;;;6153217;23;20941;-71
2024/01/28 07:45:51;;;;;;;5.23;2.93;;;;;;;;;;6150571;23;20369;-70
2024/01/28 07:48:17;;;;;;;3.23;2.77;;;;;;;;;;6149697;23;20415;-69
2024/01/28 07:50:43;;;;;;;6.93;4.37;;;;;;;;;;6152555;23;20441;-72
2024/01/28 07:53:09;;;;;;;4.13;3.90;;;;;;;;;;6152450;23;20380;-70
2024/01/28 07:55:35;;;;;;;5.20;4.70;;;;;;;;;;6152121;23;20710;-69
2024/01/28 07:58:01;;;;;;;4.67;4.30;;;;;;;;;;6152942;23;20464;-69
2024/01/28 08:00:27;;;;;;;7.70;4.47;;;;;;;;;;6152203;23;20370;-70
2024/01/28 08:02:54;;;;;;;5.03;4.60;;;;;;;;;;6125112;23;20450;-69
2024/01/28 08:05:20;;;;;;;3.40;3.20;;;;;;;;;;6150220;23;20448;-70
2024/01/28 08:07:46;;;;;;;3.83;3.70;;;;;;;;;;6151191;23;20428;-69
2024/01/28 08:10:12;;;;;;;3.67;3.33;;;;;;;;;;6150207;23;20381;-69
2024/01/28 08:12:38;;;;;;;6.30;5.47;;;;;;;;;;6148016;23;20939;-70
2024/01/28 08:15:04;;;;;;;20.47;14.27;;;;;;;;;;6150814;23;20463;-69
2024/01/28 08:17:30;;;;;;;17.10;11.10;;;;;;;;;;6150934;23;20389;-70
2024/01/28 08:19:56;;;;;;;58.77;37.50;;;;;;;;;;6151220;23;20404;-69
2024/01/28 08:22:24;;;;;;;61.60;35.77;;;;;;;;;;6151233;23;20428;-70
2024/01/28 08:24:50;;;;;;;43.50;26.40;;;;;;;;;;6151382;23;20786;-70
2024/01/28 08:27:17;;;;;;;41.53;25.70;;;;;;;;;;6123025;23;20451;-70
2024/01/28 08:29:43;;;;;;;21.30;15.80;;;;;;;;;;6150411;23;20886;-70
2024/01/28 08:32:09;;;;;;;20.90;13.07;;;;;;;;;;6122859;23;20950;-70
2024/01/28 08:34:36;;;;;;;21.07;14.10;;;;;;;;;;6146480;23;20432;-70
2024/01/28 08:37:03;;;;;;;36.03;20.20;;;;;;;;;;6150582;23;20393;-60
2024/01/28 08:39:29;;;;;;;32.47;19.40;;;;;;;;;;6150444;23;20399;-70
2024/01/28 08:41:55;;;;;;;20.00;14.97;;;;;;;;;;6150757;23;20432;-70
2024/01/28 08:44:22;;;;;;;16.03;11.77;;;;;;;;;;6151110;23;20383;-70
2024/01/28 08:46:48;;;;;;;28.63;14.30;;;;;;;;;;6124094;23;20411;-70
2024/01/28 08:49:14;;;;;;;17.50;11.80;;;;;;;;;;6148724;23;20791;-70
2024/01/28 08:51:40;;;;;;;16.23;11.33;;;;;;;;;;6150016;23;20389;-70
2024/01/28 08:54:06;;;;;;;11.20;6.93;;;;;;;;;;6149998;23;20389;-70
2024/01/28 08:56:32;;;;;;;5.50;5.10;;;;;;;;;;6150742;23;20389;-70
2024/01/28 08:58:58;;;;;;;5.57;5.13;;;;;;;;;;6151005;23;20441;-69
2024/01/28 09:01:24;;;;;;;5.67;5.27;;;;;;;;;;6152232;23;20925;-70
2024/01/28 09:03:50;;;;;;;6.93;6.23;;;;;;;;;;6127125;23;20412;-69
2024/01/28 09:06:16;;;;;;;8.87;5.83;;;;;;;;;;6153023;23;20751;-69
2024/01/28 09:08:43;;;;;;;7.30;6.23;;;;;;;;;;6153409;23;20393;-70
2024/01/28 09:11:09;;;;;;;8.00;6.60;;;;;;;;;;6153997;23;20389;-70
2024/01/28 09:13:35;;;;;;;13.60;5.70;;;;;;;;;;6152868;23;20415;-70
2024/01/28 09:16:01;;;;;;;5.03;4.73;;;;;;;;;;6128249;23;20839;-70
2024/01/28 09:18:27;;;;;;;5.20;4.80;;;;;;;;;;6154672;23;20417;-70
2024/01/28 09:20:53;;;;;;;9.80;4.67;;;;;;;;;;6154647;23;20377;-70
2024/01/28 09:23:19;;;;;;;5.10;4.80;;;;;;;;;;6153938;23;20929;-70
2024/01/28 09:25:45;;;;;;;6.33;5.77;;;;;;;;;;6154095;23;20753;-70
2024/01/28 09:28:11;;;;;;;4.90;4.57;;;;;;;;;;6154822;23;20411;-70
2024/01/28 09:30:41;;;;;;;3.83;3.73;;;;;;;;;;6154495;23;20403;-70
2024/01/28 09:33:07;;;;;;;5.17;3.47;;;;;;;;;;6154361;23;20349;-70
2024/01/28 09:35:33;;;;;;;4.00;3.63;;;;;;;;;;6154432;23;20448;-70
2024/01/28 09:37:59;;;;;;;4.87;4.20;;;;;;;;;;6154215;23;20710;-70
2024/01/28 09:40:26;;;;;;;5.93;3.67;;;;;;;;;;6154848;23;20848;-70
2024/01/28 09:42:52;;;;;;;7.03;5.67;;;;;;;;;;6154354;23;20582;-70
2024/01/28 09:45:19;;;;;;;9.10;6.77;;;;;;;;;;6153435;23;20376;-70
2024/01/28 09:47:45;;;;;;;4.70;4.40;;;;;;;;;;6153831;23;20689;-69
2024/01/28 09:50:12;;;;;;;4.73;4.40;;;;;;;;;;6154542;23;20415;-70
2024/01/28 09:52:38;;;;;;;4.57;4.17;;;;;;;;;;6154678;23;20392;-70
2024/01/28 09:55:04;;;;;;;4.33;4.03;;;;;;;;;;6151533;23;20387;-70
2024/01/28 09:57:31;;;;;;;6.13;5.60;;;;;;;;;;6127694;23;20400;-70
2024/01/28 09:59:57;;;;;;;7.20;6.50;;;;;;;;;;6153904;23;20392;-70
2024/01/28 10:02:24;;;;;;;9.63;7.30;;;;;;;;;;6153208;23;20535;-70
2024/01/28 10:04:50;;;;;;;10.20;6.50;;;;;;;;;;6153971;23;20377;-70
2024/01/28 10:07:16;;;;;;;7.77;5.63;;;;;;;;;;6153557;23;20444;-70
2024/01/28 10:09:45;;;;;;;8.87;6.00;;;;;;;;;;6127579;23;20887;-70
2024/01/28 10:12:11;;;;;;;6.43;5.83;;;;;;;;;;6153845;23;20481;-70
2024/01/28 10:14:36;;;;;;;7.50;6.70;;;;;;;;;;6153877;23;20374;-70
2024/01/28 10:17:03;;;;;;;6.10;5.60;;;;;;;;;;6153220;23;20496;-69
2024/01/28 10:19:28;;;;;;;11.17;7.20;;;;;;;;;;6153274;23;20385;-70
2024/01/28 10:21:56;;;;;;;5.67;5.27;;;;;;;;;;6153583;23;20423;-70
2024/01/28 10:24:22;;;;;;;12.20;8.03;;;;;;;;;;6128286;23;20401;-70
2024/01/28 10:26:49;;;;;;;10.10;7.30;;;;;;;;;;6153537;23;20444;-69
2024/01/28 10:29:15;;;;;;;14.90;9.30;;;;;;;;;;6151717;23;20385;-70
2024/01/28 10:31:41;;;;;;;14.47;8.20;;;;;;;;;;6152799;23;20388;-70
2024/01/28 10:34:08;;;;;;;10.70;5.80;;;;;;;;;;6152423;23;20511;-70
2024/01/28 10:36:35;;;;;;;6.53;5.57;;;;;;;;;;6152702;23;20381;-70
2024/01/28 10:39:03;;;;;;;5.57;5.17;;;;;;;;;;6153964;23;20381;-70
2024/01/28 10:41:30;;;;;;;10.37;5.00;;;;;;;;;;6152328;23;20381;-70
2024/01/28 10:44:15;;;;;;;9.27;6.50;;;;;;;;;;6154650;23;20392;-70
2024/01/28 10:46:42;;;;;;;18.37;9.33;;;;;;;;;;6126671;23;20851;-70
2024/01/28 10:49:09;;;;;;;39.40;16.70;;;;;;;;;;6152973;23;20715;-70
2024/01/28 10:51:36;;;;;;;6.97;5.30;;;;;;;;;;6153094;23;20859;-70
2024/01/28 10:54:09;;;;;;;5.23;3.83;;;;;;;;;;6150305;23;20381;-70
2024/01/28 10:56:38;;;;;;;4.60;4.30;;;;;;;;;;6153069;23;20368;-71
2024/01/28 10:59:04;;;;;;;7.00;4.47;;;;;;;;;;6152916;23;20516;-70
2024/01/28 11:01:31;;;;;;;5.97;5.47;;;;;;;;;;6152299;23;20464;-70
2024/01/28 11:03:59;;;;;;;7.33;4.50;;;;;;;;;;6152692;23;20389;-69
2024/01/28 11:06:26;;;;;;;31.07;21.03;;;;;;;;;;6152737;23;20368;-69
2024/01/28 11:08:54;;;;;;;12.90;8.53;;;;;;;;;;6153187;23;20391;-72
2024/01/28 11:11:21;;;;;;;3.30;3.10;;;;;;;;;;6152632;23;20882;-71
2024/01/28 11:13:47;;;;;;;3.10;3.00;;;;;;;;;;6152681;23;20384;-72
2024/01/28 11:16:15;;;;;;;8.10;4.70;;;;;;;;;;6151770;23;20381;-71
2024/01/28 11:18:41;;;;;;;6.53;5.90;;;;;;;;;;6153093;23;20377;-71
2024/01/28 11:21:11;;;;;;;10.60;7.97;;;;;;;;;;6153199;23;20381;-69
2024/01/28 11:23:44;;;;;;;4.27;4.00;;;;;;;;;;6152950;23;20460;-69
2024/01/28 11:26:16;;;;;;;3.93;3.63;;;;;;;;;;6126525;23;20393;-70
2024/01/28 11:28:53;;;;;;;5.80;5.20;;;;;;;;;;6153293;23;20464;-70
2024/01/28 11:31:23;;;;;;;7.03;4.60;;;;;;;;;;6152128;23;20379;-69
2024/01/28 11:33:49;;;;;;;7.13;5.03;;;;;;;;;;6153026;23;20381;-70
2024/01/28 11:36:22;;;;;;;10.33;9.13;;;;;;;;;;6152923;23;20369;-70
2024/01/28 11:38:50;;;;;;;9.17;6.07;;;;;;;;;;6151289;23;20404;-70
2024/01/28 11:41:18;;;;;;;5.07;4.20;;;;;;;;;;6153220;23;20381;-70
2024/01/28 11:43:47;;;;;;;3.50;3.30;;;;;;;;;;6153310;23;20447;-70
2024/01/28 11:46:13;;;;;;;3.80;3.53;;;;;;;;;;6150985;23;20381;-70
2024/01/28 11:48:39;;;;;;;7.17;3.83;;;;;;;;;;6153613;23;20389;-70
2024/01/28 11:51:05;;;;;;;3.37;3.13;;;;;;;;;;6152805;23;20373;-70
2024/01/28 11:53:32;;;;;;;6.60;4.57;;;;;;;;;;6152781;23;20724;-70
2024/01/28 11:56:08;;;;;;;4.27;3.70;;;;;;;;;;6152421;23;20405;-70
2024/01/28 11:58:34;;;;;;;4.87;4.50;;;;;;;;;;6153342;23;20974;-70
2024/01/28 12:01:00;;;;;;;7.60;7.00;;;;;;;;;;6152355;23;20715;-70
2024/01/28 12:03:26;;;;;;;3.07;2.90;;;;;;;;;;6151019;23;20429;-70
2024/01/28 12:05:52;;;;;;;3.90;3.53;;;;;;;;;;6149037;23;20391;-71
2024/01/28 12:08:27;;;;;;;11.77;7.70;;;;;;;;;;6149826;23;20397;-70
2024/01/28 12:11:02;;;;;;;15.33;3.80;;;;;;;;;;6150665;23;20455;-70
2024/01/28 12:13:28;;;;;;;3.27;3.17;;;;;;;;;;6152341;23;20407;-70
2024/01/28 12:15:57;;;;;;;3.20;3.00;;;;;;;;;;6151916;23;20381;-72
2024/01/28 12:18:23;;;;;;;3.30;3.20;;;;;;;;;;6126358;23;20452;-71
2024/01/28 12:20:52;;;;;;;4.63;4.10;;;;;;;;;;6153106;23;20775;-70
2024/01/28 12:23:19;;;;;;;4.07;2.70;;;;;;;;;;6152801;23;20504;-72
2024/01/28 12:25:45;;;;;;;5.47;3.60;;;;;;;;;;6152357;23;20384;-71
2024/01/28 12:28:11;;;;;;;3.67;3.20;;;;;;;;;;6152764;23;20476;-72
2024/01/28 12:30:38;;;;;;;3.20;3.00;;;;;;;;;;6152667;23;20839;-72
2024/01/28 12:33:04;;;;;;;4.30;3.90;;;;;;;;;;6126063;23;20451;-70
2024/01/28 12:35:30;;;;;;;3.20;3.00;;;;;;;;;;6151863;23;20381;-71
2024/01/28 12:37:56;;;;;;;2.80;2.70;;;;;;;;;;6150132;23;20400;-71
2024/01/28 12:40:22;;;;;;;3.20;3.10;;;;;;;;;;6152533;23;20384;-70
2024/01/28 12:42:48;;;;;;;3.83;3.47;;;;;;;;;;6152178;23;20914;-70
2024/01/28 12:45:14;;;;;;;4.67;3.03;;;;;;;;;;6150129;23;20384;-71
2024/01/28 12:47:40;;;;;;;3.80;3.50;;;;;;;;;;6152105;23;20391;-70
2024/01/28 12:50:07;;;;;;;5.33;2.87;;;;;;;;;;6151408;23;20381;-70
2024/01/28 12:52:33;;;;;;;9.40;8.50;;;;;;;;;;6152037;23;20469;-71
2024/01/28 12:54:59;;;;;;;4.73;3.83;;;;;;;;;;6152772;23;20843;-71
2024/01/28 12:57:25;;;;;;;4.93;4.63;;;;;;;;;;6152119;23;20381;-72
2024/01/28 12:59:53;;;;;;;7.00;6.37;;;;;;;;;;6152357;23;20432;-70
2024/01/28 13:02:19;;;;;;;7.73;4.10;;;;;;;;;;6152430;23;20432;-71
2024/01/28 13:04:45;;;;;;;13.13;4.10;;;;;;;;;;6152764;23;20819;-71
2024/01/28 13:07:11;;;;;;;9.57;3.80;;;;;;;;;;6152270;23;20381;-70
2024/01/28 13:09:37;;;;;;;7.30;3.37;;;;;;;;;;6152335;23;20388;-71
2024/01/28 13:12:03;;;;;;;12.63;3.20;;;;;;;;;;6152451;23;20484;-71
2024/01/28 13:14:29;;;;;;;3.60;3.30;;;;;;;;;;6153186;23;20460;-69
2024/01/28 13:16:55;;;;;;;4.10;3.43;;;;;;;;;;6151808;23;20870;-71
2024/01/28 13:19:21;;;;;;;4.23;3.87;;;;;;;;;;6152680;23;20407;-69
2024/01/28 13:21:47;;;;;;;5.07;3.53;;;;;;;;;;6152457;23;20436;-71
2024/01/28 13:24:13;;;;;;;3.10;2.90;;;;;;;;;;6151917;23;20965;-70
2024/01/28 13:26:39;;;;;;;2.90;2.70;;;;;;;;;;6151495;23;20373;-72
2024/01/28 13:29:05;;;;;;;5.43;3.30;;;;;;;;;;6127246;23;20479;-70
2024/01/28 13:31:31;;;;;;;4.07;3.13;;;;;;;;;;6146173;23;20451;-71
2024/01/28 13:33:57;;;;;;;3.60;3.40;;;;;;;;;;6152101;23;20380;-71
2024/01/28 13:36:23;;;;;;;6.47;3.43;;;;;;;;;;6151548;23;20379;-71
2024/01/28 13:38:50;;;;;;;3.90;2.53;;;;;;;;;;6151419;23;20397;-71
2024/01/28 13:41:16;;;;;;;3.07;2.97;;;;;;;;;;6151264;23;20464;-71
2024/01/28 13:43:42;;;;;;;3.00;2.90;;;;;;;;;;6151366;23;20464;-71
2024/01/28 13:46:08;;;;;;;4.83;3.40;;;;;;;;;;6151243;23;20369;-71
2024/01/28 13:48:34;;;;;;;3.97;3.40;;;;;;;;;;6128017;23;20883;-71
2024/01/28 13:51:00;;;;;;;3.13;2.63;;;;;;;;;;6153767;23;20377;-71
2024/01/28 13:53:26;;;;;;;7.87;5.53;;;;;;;;;;6153613;23;20891;-70
2024/01/28 13:55:52;;;;;;;7.80;5.63;;;;;;;;;;6153600;23;20754;-69
2024/01/28 13:58:18;;;;;;;13.77;8.70;;;;;;;;;;6153952;23;20488;-70
2024/01/28 14:00:44;;;;;;;5.57;5.17;;;;;;;;;;6127584;23;20930;-70
2024/01/28 14:03:11;;;;;;;2.83;2.67;;;;;;;;;;6153946;23;20523;-71
2024/01/28 14:05:40;;;;;;;6.07;2.33;;;;;;;;;;6152708;23;20416;-71
2024/01/28 14:08:06;;;;;;;2.43;2.27;;;;;;;;;;6154196;23;20519;-70
2024/01/28 14:10:32;;;;;;;3.63;2.37;;;;;;;;;;6152966;23;20369;-71
2024/01/28 14:12:58;;;;;;;3.63;2.30;;;;;;;;;;6153106;23;20485;-71
2024/01/28 14:15:24;;;;;;;2.43;2.33;;;;;;;;;;6152810;23;20709;-71
2024/01/28 14:17:50;;;;;;;2.63;2.53;;;;;;;;;;6152684;23;20500;-70
2024/01/28 14:20:16;;;;;;;1.90;1.80;;;;;;;;;;6153414;23;20671;-71
2024/01/28 14:22:42;;;;;;;2.43;1.37;;;;;;;;;;6152789;23;20906;-71
2024/01/28 14:25:08;;;;;;;2.63;2.10;;;;;;;;;;6153581;23;20375;-71
2024/01/28 14:27:34;;;;;;;1.90;1.80;;;;;;;;;;6126985;23;20401;-70
2024/01/28 14:30:00;;;;;;;2.17;1.90;;;;;;;;;;6153654;23;20384;-70
2024/01/28 14:32:26;;;;;;;3.60;3.40;;;;;;;;;;6152637;23;20431;-71
2024/01/28 14:34:52;;;;;;;1.80;1.80;;;;;;;;;;6153492;23;20381;-71
2024/01/28 14:37:18;;;;;;;5.40;2.10;;;;;;;;;;6153459;23;20389;-71